Observation data for Wolfforth on 11/19/2019      Previous  Date       Current Mesonet Observations  Soil Data  Daily Summary Page  Observations in Plain Language
KWOS 190600Z 08002KT 05/M01 A2998 RMK A01 T00511005  RH  067%=      5-min Rain = 0
KWOS 190605Z 08002KT 05/M00 A2998 RMK A01 T00521004  RH  068%=      5-min Rain = 0
KWOS 190610Z 07002KT 06/M00 A2998 RMK A01 T00551004  RH  067%=      5-min Rain = 0
KWOS 190615Z 06001KT 06/M00 A2998 RMK A01 T00571003  RH  066%=      5-min Rain = 0
KWOS 190620Z 06001KT 06/M00 A2998 RMK A01 T00581003  RH  065%=      5-min Rain = 0
KWOS 190625Z 08000KT 06/M01 A2998 RMK A01 T00551005  RH  066%=      5-min Rain = 0
KWOS 190630Z 12001KT 06/M00 A2999 RMK A01 T00551004  RH  067%=      5-min Rain = 0
KWOS 190635Z 13001KT 06/M00 A2999 RMK A01 T00551004  RH  066%=      5-min Rain = 0
KWOS 190640Z 14001KT 06/M00 A2999 RMK A01 T00581003  RH  066%=      5-min Rain = 0
KWOS 190645Z 15002KT 07/M00 A2999 RMK A01 T00661003  RH  062%=      5-min Rain = 0
KWOS 190650Z 15002KT 06/M01 A2999 RMK A01 T00631005  RH  063%=      5-min Rain = 0
KWOS 190655Z 14002KT 06/M01 A2999 RMK A01 T00621005  RH  063%=      5-min Rain = 0
KWOS 190700Z 14001KT 06/M01 A2999 RMK A01 T00591006  RH  064%=      5-min Rain = 0
KWOS 190705Z 14001KT 06/M01 A2999 RMK A01 T00591005  RH  064%=      5-min Rain = 0
KWOS 190710Z 15001KT 07/M00 A2999 RMK A01 T00661004  RH  062%=      5-min Rain = 0
KWOS 190715Z 16002KT 07/M01 A2999 RMK A01 T00731005  RH  058%=      5-min Rain = 0
KWOS 190720Z 18001KT 07/M01 A2999 RMK A01 T00691006  RH  059%=      5-min Rain = 0
KWOS 190725Z 20001KT 06/M01 A2999 RMK A01 T00631007  RH  062%=      5-min Rain = 0
KWOS 190730Z 18001KT 06/M01 A2999 RMK A01 T00571008  RH  064%=      5-min Rain = 0
KWOS 190735Z 19001KT 06/M01 A2999 RMK A01 T00581006  RH  064%=      5-min Rain = 0
KWOS 190740Z 19002KT 06/M01 A2999 RMK A01 T00571007  RH  064%=      5-min Rain = 0
KWOS 190745Z 19002KT 05/M01 A2999 RMK A01 T00521007  RH  066%=      5-min Rain = 0
KWOS 190750Z 19002KT 05/M01 A2999 RMK A01 T00501007  RH  067%=      5-min Rain = 0
KWOS 190755Z 19002KT 05/M01 A2999 RMK A01 T00501005  RH  068%=      5-min Rain = 0
KWOS 190800Z 18002KT 05/M01 A2999 RMK A01 T00501006  RH  068%=      5-min Rain = 0
KWOS 190805Z 19003KT 05/M01 A2999 RMK A01 T00481005  RH  069%=      5-min Rain = 0
KWOS 190810Z 19002KT 05/M01 A2999 RMK A01 T00471005  RH  070%=      5-min Rain = 0
KWOS 190815Z 20003KT 05/M01 A2999 RMK A01 T00501005  RH  068%=      5-min Rain = 0
KWOS 190820Z 21003KT 05/M01 A2999 RMK A01 T00521006  RH  066%=      5-min Rain = 0
KWOS 190825Z 23004KT 05/M01 A30 RMK A01 T00481006  RH  068%=      5-min Rain = 0
KWOS 190830Z 23004KT 05/M01 A30 RMK A01 T00491005  RH  069%=      5-min Rain = 0
KWOS 190835Z 23003KT 05/M01 A2999 RMK A01 T00521005  RH  067%=      5-min Rain = 0
KWOS 190840Z 23002KT 05/M01 A2999 RMK A01 T00511006  RH  068%=      5-min Rain = 0
KWOS 190845Z 26001KT 04/M01 A2999 RMK A01 T00421009  RH  070%=      5-min Rain = 0
KWOS 190850Z 28001KT 04/M01 A2999 RMK A01 T00371008  RH  073%=      5-min Rain = 0
KWOS 190855Z 29001KT 04/M01 A2999 RMK A01 T00361008  RH  073%=      5-min Rain = 0
KWOS 190900Z 31001KT 04/M01 A2998 RMK A01 T00361008  RH  074%=      5-min Rain = 0
KWOS 190905Z 30001KT 04/M01 A2998 RMK A01 T00381007  RH  073%=      5-min Rain = 0
KWOS 190910Z 31001KT 04/M01 A2998 RMK A01 T00381008  RH  073%=      5-min Rain = 0
KWOS 190915Z 34001KT 04/M01 A2998 RMK A01 T00381007  RH  073%=      5-min Rain = 0
KWOS 190920Z 01001KT 04/M01 A2998 RMK A01 T00391007  RH  073%=      5-min Rain = 0
KWOS 190925Z 02002KT 04/M01 A2998 RMK A01 T00411008  RH  072%=      5-min Rain = 0
KWOS 190930Z 02002KT 04/M01 A2998 RMK A01 T00381009  RH  073%=      5-min Rain = 0
KWOS 190935Z 03001KT 04/M01 A2998 RMK A01 T00361008  RH  074%=      5-min Rain = 0
KWOS 190940Z 00000KT 04/M01 A2998 RMK A01 T00411005  RH  073%=      5-min Rain = 0
KWOS 190945Z 28001KT 04/M01 A2998 RMK A01 T00401007  RH  072%=      5-min Rain = 0
KWOS 190950Z 27007KT 04/M01 A2999 RMK A01 T00381005  RH  074%=      5-min Rain = 0
KWOS 190955Z 26005KT 05/M00 A2998 RMK A01 T00471003  RH  071%=      5-min Rain = 0
KWOS 191000Z 26007KT 05/M00 A2998 RMK A01 T00501002  RH  070%=      5-min Rain = 0
KWOS 191005Z 27007KT 06/M00 A2998 RMK A01 T00571001  RH  067%=      5-min Rain = 0
KWOS 191010Z 26007KT 06/M00 A2998 RMK A01 T00561001  RH  067%=      5-min Rain = 0
KWOS 191015Z 26006KT 06/00 A2998 RMK A01 T00580001  RH  067%=      5-min Rain = 0
KWOS 191020Z 27007KT 06/00 A2998 RMK A01 T00600001  RH  067%=      5-min Rain = 0
KWOS 191025Z 27005KT 06/00 A2998 RMK A01 T00600001  RH  067%=      5-min Rain = 0
KWOS 191030Z 27005KT 06/00 A2998 RMK A01 T00580001  RH  067%=      5-min Rain = 0
KWOS 191035Z 27005KT 06/00 A2998 RMK A01 T00560001  RH  068%=      5-min Rain = 0
KWOS 191040Z 28003KT 06/00 A2998 RMK A01 T00570001  RH  068%=      5-min Rain = 0
KWOS 191045Z 27003KT 06/00 A2998 RMK A01 T00560001  RH  068%=      5-min Rain = 0
KWOS 191050Z 28003KT 06/00 A2998 RMK A01 T00570001  RH  068%=      5-min Rain = 0
KWOS 191055Z 29003KT 06/00 A2998 RMK A01 T005600-0  RH  068%=      5-min Rain = 0
KWOS 191100Z 31002KT 05/M00 A2998 RMK A01 T00531001  RH  069%=      5-min Rain = 0
KWOS 191105Z 30003KT 05/M00 A2998 RMK A01 T00521001  RH  069%=      5-min Rain = 0
KWOS 191110Z 31003KT 05/M00 A2998 RMK A01 T00501002  RH  070%=      5-min Rain = 0
KWOS 191115Z 34003KT 05/M00 A2998 RMK A01 T00461004  RH  071%=      5-min Rain = 0
KWOS 191120Z 35003KT 04/M01 A2998 RMK A01 T00361008  RH  074%=      5-min Rain = 0
KWOS 191125Z 35003KT 03/M01 A2997 RMK A01 T00311008  RH  076%=      5-min Rain = 0
KWOS 191130Z 36003KT 03/M01 A2997 RMK A01 T00301007  RH  077%=      5-min Rain = 0
KWOS 191135Z 01004KT 03/M01 A2997 RMK A01 T00321007  RH  076%=      5-min Rain = 0
KWOS 191140Z 02004KT 03/M01 A2996 RMK A01 T00301008  RH  077%=      5-min Rain = 0
KWOS 191145Z 02003KT 03/M01 A2996 RMK A01 T00301008  RH  077%=      5-min Rain = 0
KWOS 191150Z 02003KT 03/M01 A2996 RMK A01 T00301007  RH  077%=      5-min Rain = 0
KWOS 191155Z 01004KT 03/M01 A2996 RMK A01 T00331005  RH  077%=      5-min Rain = 0
KWOS 191200Z 01003KT 04/M00 A2996 RMK A01 T00391004  RH  074%=      5-min Rain = 0
KWOS 191205Z 03004KT 04/M01 A2996 RMK A01 T00391006  RH  073%=      5-min Rain = 0
KWOS 191210Z 04005KT 04/M01 A2996 RMK A01 T00371006  RH  074%=      5-min Rain = 0
KWOS 191215Z 04005KT 04/M01 A2996 RMK A01 T00351006  RH  075%=      5-min Rain = 0
KWOS 191220Z 04003KT 03/M01 A2996 RMK A01 T00321007  RH  076%=      5-min Rain = 0
KWOS 191225Z 03003KT 03/M01 A2996 RMK A01 T00311007  RH  077%=      5-min Rain = 0
KWOS 191230Z 03003KT 03/M01 A2996 RMK A01 T00331005  RH  077%=      5-min Rain = 0
KWOS 191235Z 04004KT 04/M01 A2996 RMK A01 T00371006  RH  075%=      5-min Rain = 0
KWOS 191240Z 04004KT 04/M01 A2996 RMK A01 T00351007  RH  074%=      5-min Rain = 0
KWOS 191245Z 04004KT 03/M01 A2996 RMK A01 T00331008  RH  075%=      5-min Rain = 0
KWOS 191250Z 03003KT 03/M01 A2996 RMK A01 T00341006  RH  076%=      5-min Rain = 0
KWOS 191255Z 00003KT 03/M01 A2996 RMK A01 T00321008  RH  076%=      5-min Rain = 0
KWOS 191300Z 32003KT 03/M01 A2996 RMK A01 T00291007  RH  078%=      5-min Rain = 0
KWOS 191305Z 30004KT 03/M01 A2997 RMK A01 T00271007  RH  079%=      5-min Rain = 0
KWOS 191310Z 31005KT 03/M01 A2997 RMK A01 T00281006  RH  079%=      5-min Rain = 0
KWOS 191315Z 30006KT 03/M01 A2997 RMK A01 T00291006  RH  079%=      5-min Rain = 0
KWOS 191320Z 30006KT 03/M01 A2997 RMK A01 T00301005  RH  079%=      5-min Rain = 0
KWOS 191325Z 30006KT 03/M01 A2997 RMK A01 T00311005  RH  079%=      5-min Rain = 0
KWOS 191330Z 29006KT 03/M01 A2997 RMK A01 T00311005  RH  078%=      5-min Rain = 0
KWOS 191335Z 30005KT 03/M00 A2997 RMK A01 T00321004  RH  078%=      5-min Rain = 0
KWOS 191340Z 30005KT 03/M00 A2997 RMK A01 T00341004  RH  077%=      5-min Rain = 0
KWOS 191345Z 31004KT 04/M00 A2997 RMK A01 T00351003  RH  077%=      5-min Rain = 0
KWOS 191350Z 31004KT 04/M00 A2997 RMK A01 T00351003  RH  077%=      5-min Rain = 0
KWOS 191355Z 31004KT 04/M00 A2997 RMK A01 T00371003  RH  076%=      5-min Rain = 0
KWOS 191400Z 31004KT 04/M00 A2997 RMK A01 T00371004  RH  076%=      5-min Rain = 0
KWOS 191405Z 33003KT 04/M01 A2997 RMK A01 T00351005  RH  076%=      5-min Rain = 0
KWOS 191410Z 34003KT 03/M00 A2997 RMK A01 T00341004  RH  077%=      5-min Rain = 0
KWOS 191415Z 34003KT 04/M00 A2997 RMK A01 T00371001  RH  077%=      5-min Rain = 0
KWOS 191420Z 36003KT 05/00 A2997 RMK A01 T00450003  RH  075%=      5-min Rain = 0
KWOS 191425Z 02002KT 05/01 A2997 RMK A01 T00540007  RH  073%=      5-min Rain = 0
KWOS 191430Z 02002KT 06/01 A2997 RMK A01 T00610008  RH  069%=      5-min Rain = 0
KWOS 191435Z 05002KT 07/01 A2997 RMK A01 T00670010  RH  068%=      5-min Rain = 0
KWOS 191440Z 05001KT 07/01 A2997 RMK A01 T00720011  RH  066%=      5-min Rain = 0
KWOS 191445Z 00000KT 08/01 A2997 RMK A01 T00790014  RH  065%=      5-min Rain = 0
KWOS 191450Z 00000KT 09/02 A2997 RMK A01 T00880018  RH  063%=      5-min Rain = 0
KWOS 191455Z 00000KT 09/02 A2997 RMK A01 T00940018  RH  060%=      5-min Rain = 0
KWOS 191500Z 24000KT 10/02 A2998 RMK A01 T00980019  RH  059%=      5-min Rain = 0
KWOS 191505Z 20001KT 11/02 A2998 RMK A01 T01050021  RH  057%=      5-min Rain = 0
KWOS 191510Z 18001KT 11/02 A2997 RMK A01 T01090024  RH  056%=      5-min Rain = 0
KWOS 191515Z 18002KT 11/03 A2998 RMK A01 T01140025  RH  055%=      5-min Rain = 0
KWOS 191520Z 16004KT 13/02 A2998 RMK A01 T01260021  RH  050%=      5-min Rain = 0
KWOS 191525Z 15004KT 13/02 A2997 RMK A01 T01330021  RH  047%=      5-min Rain = 0
KWOS 191530Z 16004KT 14/02 A2998 RMK A01 T01390019  RH  045%=      5-min Rain = 0
KWOS 191535Z 15006KT 14/02 A2998 RMK A01 T01430021  RH  044%=      5-min Rain = 0
KWOS 191540Z 15008KT 15/02 A2998 RMK A01 T01460024  RH  044%=      5-min Rain = 0
KWOS 191545Z 16009KT 15/02 A2998 RMK A01 T01470023  RH  044%=      5-min Rain = 0
KWOS 191550Z 16009KT 15/03 A2998 RMK A01 T01490025  RH  044%=      5-min Rain = 0
KWOS 191555Z 16009KT 15/02 A2997 RMK A01 T01510022  RH  042%=      5-min Rain = 0
KWOS 191600Z 16008KT 15/03 A2997 RMK A01 T01520025  RH  043%=      5-min Rain = 0
KWOS 191605Z 15008KT 15/03 A2997 RMK A01 T01540026  RH  043%=      5-min Rain = 0
KWOS 191610Z 16006KT 16/03 A2997 RMK A01 T01550028  RH  043%=      5-min Rain = 0
KWOS 191615Z 16006KT 16/03 A2998 RMK A01 T01590029  RH  042%=      5-min Rain = 0
KWOS 191620Z 17007KT 16/03 A2998 RMK A01 T01630030  RH  042%=      5-min Rain = 0
KWOS 191625Z 17008KT 17/03 A2998 RMK A01 T01680026  RH  039%=      5-min Rain = 0
KWOS 191630Z 18008KT 17/02 A2997 RMK A01 T01700023  RH  038%=      5-min Rain = 0
KWOS 191635Z 18008KT 17/02 A2997 RMK A01 T01690022  RH  038%=      5-min Rain = 0
KWOS 191640Z 19008KT 17/02 A2997 RMK A01 T01730024  RH  037%=      5-min Rain = 0
KWOS 191645Z 19010KT 17/02 A2997 RMK A01 T01740018  RH  035%=      5-min Rain = 0
KWOS 191650Z 18008KT 18/02 A2997 RMK A01 T01770018  RH  035%=      5-min Rain = 0
KWOS 191655Z 19009KT 18/02 A2997 RMK A01 T01820017  RH  033%=      5-min Rain = 0
KWOS 191700Z 19009KT 19/01 A2996 RMK A01 T01850014  RH  032%=      5-min Rain = 0
KWOS 191705Z 19009KT 19/01 A2996 RMK A01 T01880013  RH  031%=      5-min Rain = 0
KWOS 191710Z 19010KT 19/01 A2996 RMK A01 T01890012  RH  031%=      5-min Rain = 0
KWOS 191715Z 19009KT 19/01 A2996 RMK A01 T01920014  RH  031%=      5-min Rain = 0
KWOS 191720Z 19009KT 20/02 A2996 RMK A01 T01980017  RH  030%=      5-min Rain = 0
KWOS 191725Z 19009KT 20/02 A2995 RMK A01 T02000019  RH  030%=      5-min Rain = 0
KWOS 191730Z 19011KT 20/02 A2995 RMK A01 T01980015  RH  030%=      5-min Rain = 0
KWOS 191735Z 19011KT 20/02 A2995 RMK A01 T02000015  RH  030%=      5-min Rain = 0
KWOS 191740Z 20011KT 19/02 A2995 RMK A01 T01940016  RH  031%=      5-min Rain = 0
KWOS 191745Z 20011KT 20/02 A2995 RMK A01 T01950019  RH  031%=      5-min Rain = 0
KWOS 191750Z 20011KT 20/02 A2994 RMK A01 T01990019  RH  031%=      5-min Rain = 0
KWOS 191755Z 20012KT 20/02 A2994 RMK A01 T02020017  RH  030%=      5-min Rain = 0
KWOS 191800Z 20011G16KT 20/02 A2994 RMK A01 T02020016  RH  029%=      5-min Rain = 0
KWOS 191805Z 20013KT 21/01 A2994 RMK A01 T02070014  RH  028%=      5-min Rain = 0
KWOS 191810Z 19013KT 21/01 A2993 RMK A01 T02140010  RH  026%=      5-min Rain = 0
KWOS 191815Z 20013G18KT 22/01 A2993 RMK A01 T02180005  RH  025%=      5-min Rain = 0
KWOS 191820Z 21014KT 22/00 A2993 RMK A01 T02180004  RH  024%=      5-min Rain = 0
KWOS 191825Z 20015KT 22/00 A2992 RMK A01 T02190004  RH  024%=      5-min Rain = 0
KWOS 191830Z 20016KT 22/00 A2992 RMK A01 T02200000  RH  023%=      5-min Rain = 0
KWOS 191835Z 20014KT 22/00 A2992 RMK A01 T02230001  RH  023%=      5-min Rain = 0
KWOS 191840Z 20015KT 22/00 A2991 RMK A01 T02230001  RH  023%=      5-min Rain = 0
KWOS 191845Z 20014KT 23/00 A2991 RMK A01 T02250003  RH  023%=      5-min Rain = 0
KWOS 191850Z 20014KT 23/00 A2991 RMK A01 T02270001  RH  023%=      5-min Rain = 0
KWOS 191855Z 20015KT 23/00 A2991 RMK A01 T02300001  RH  022%=      5-min Rain = 0
KWOS 191900Z 20015G20KT 23/M00 A299 RMK A01 T02321002  RH  021%=      5-min Rain = 0
KWOS 191905Z 21016G22KT 23/M00 A299 RMK A01 T02321004  RH  021%=      5-min Rain = 0
KWOS 191910Z 20013G19KT 23/M00 A299 RMK A01 T02341003  RH  021%=      5-min Rain = 0
KWOS 191915Z 19017G22KT 24/M01 A299 RMK A01 T02361008  RH  020%=      5-min Rain = 0
KWOS 191920Z 20015G21KT 23/M01 A299 RMK A01 T02341007  RH  020%=      5-min Rain = 0
KWOS 191925Z 20015KT 24/M01 A2989 RMK A01 T02351006  RH  020%=      5-min Rain = 0
KWOS 191930Z 20015G21KT 24/M01 A2989 RMK A01 T02401005  RH  020%=      5-min Rain = 0
KWOS 191935Z 21015G20KT 24/M01 A2988 RMK A01 T02391006  RH  020%=      5-min Rain = 0
KWOS 191940Z 20016G22KT 24/M01 A2988 RMK A01 T02391005  RH  020%=      5-min Rain = 0
KWOS 191945Z 20016KT 24/M00 A2988 RMK A01 T02401001  RH  021%=      5-min Rain = 0
KWOS 191950Z 20016KT 24/00 A2988 RMK A01 T02430001  RH  021%=      5-min Rain = 0
KWOS 191955Z 19016KT 24/00 A2987 RMK A01 T02430003  RH  021%=      5-min Rain = 0
KWOS 192000Z 20016KT 24/M00 A2987 RMK A01 T02431001  RH  020%=      5-min Rain = 0
KWOS 192005Z 20014KT 24/00 A2986 RMK A01 T02420001  RH  021%=      5-min Rain = 0
KWOS 192010Z 20014KT 24/00 A2986 RMK A01 T02440001  RH  020%=      5-min Rain = 0
KWOS 192015Z 21014G19KT 24/M00 A2986 RMK A01 T02441002  RH  020%=      5-min Rain = 0
KWOS 192020Z 19014G19KT 24/M00 A2986 RMK A01 T02411003  RH  020%=      5-min Rain = 0
KWOS 192025Z 20013KT 24/M01 A2986 RMK A01 T02371005  RH  020%=      5-min Rain = 0
KWOS 192030Z 20012G17KT 24/M00 A2985 RMK A01 T02421004  RH  020%=      5-min Rain = 0
KWOS 192035Z 20013KT 25/M01 A2985 RMK A01 T02481007  RH  019%=      5-min Rain = 0
KWOS 192040Z 20013KT 25/M01 A2985 RMK A01 T02491007  RH  019%=      5-min Rain = 0
KWOS 192045Z 20014KT 25/M01 A2984 RMK A01 T02501008  RH  018%=      5-min Rain = 0
KWOS 192050Z 20013KT 25/M01 A2984 RMK A01 T02491010  RH  018%=      5-min Rain = 0
KWOS 192055Z 20013KT 25/M01 A2984 RMK A01 T02491010  RH  018%=      5-min Rain = 0
KWOS 192100Z 20012G17KT 25/M01 A2984 RMK A01 T02511008  RH  018%=      5-min Rain = 0
KWOS 192105Z 20013G19KT 26/M01 A2984 RMK A01 T02561009  RH  018%=      5-min Rain = 0
KWOS 192110Z 19014G19KT 25/M01 A2984 RMK A01 T02501014  RH  018%=      5-min Rain = 0
KWOS 192115Z 21016G21KT 25/M02 A2983 RMK A01 T02511019  RH  017%=      5-min Rain = 0
KWOS 192120Z 20015G20KT 25/M02 A2983 RMK A01 T02481019  RH  017%=      5-min Rain = 0
KWOS 192125Z 20014KT 24/M02 A2983 RMK A01 T02441019  RH  018%=      5-min Rain = 0
KWOS 192130Z 20014G20KT 25/M02 A2983 RMK A01 T02481018  RH  017%=      5-min Rain = 0
KWOS 192135Z 20013KT 25/M02 A2983 RMK A01 T02521019  RH  017%=      5-min Rain = 0
KWOS 192140Z 20015G21KT 25/M02 A2983 RMK A01 T02531021  RH  016%=      5-min Rain = 0
KWOS 192145Z 20014KT 25/M02 A2983 RMK A01 T02501021  RH  017%=      5-min Rain = 0
KWOS 192150Z 20013G19KT 25/M02 A2983 RMK A01 T02501021  RH  017%=      5-min Rain = 0
KWOS 192155Z 19014KT 25/M02 A2982 RMK A01 T02491021  RH  017%=      5-min Rain = 0
KWOS 192200Z 20014G19KT 25/M02 A2982 RMK A01 T02481021  RH  017%=      5-min Rain = 0
KWOS 192205Z 20014G19KT 25/M02 A2982 RMK A01 T02461022  RH  017%=      5-min Rain = 0
KWOS 192210Z 20014G19KT 24/M02 A2982 RMK A01 T02431022  RH  017%=      5-min Rain = 0
KWOS 192215Z 19014G19KT 24/M02 A2982 RMK A01 T02411022  RH  017%=      5-min Rain = 0
KWOS 192220Z 19012KT 24/M02 A2982 RMK A01 T02381020  RH  018%=      5-min Rain = 0
KWOS 192225Z 19012KT 23/M02 A2982 RMK A01 T02331019  RH  019%=      5-min Rain = 0
KWOS 192230Z 20013KT 23/M02 A2982 RMK A01 T02311021  RH  019%=      5-min Rain = 0
KWOS 192235Z 19011KT 23/M02 A2983 RMK A01 T02281020  RH  019%=      5-min Rain = 0
KWOS 192240Z 19010KT 23/M02 A2982 RMK A01 T02301017  RH  019%=      5-min Rain = 0
KWOS 192245Z 20009KT 23/M02 A2982 RMK A01 T02331015  RH  019%=      5-min Rain = 0
KWOS 192250Z 20010KT 23/M01 A2982 RMK A01 T02331014  RH  019%=      5-min Rain = 0
KWOS 192255Z 19009KT 23/M01 A2982 RMK A01 T02321014  RH  019%=      5-min Rain = 0
KWOS 192300Z 19010KT 23/M02 A2982 RMK A01 T02291015  RH  020%=      5-min Rain = 0
KWOS 192305Z 19011KT 23/M02 A2982 RMK A01 T02251016  RH  020%=      5-min Rain = 0
KWOS 192310Z 19010G15KT 22/M02 A2982 RMK A01 T02221017  RH  020%=      5-min Rain = 0
KWOS 192315Z 19010KT 22/M02 A2982 RMK A01 T02191018  RH  021%=      5-min Rain = 0
KWOS 192320Z 19010KT 22/M02 A2982 RMK A01 T02171018  RH  021%=      5-min Rain = 0
KWOS 192325Z 19009KT 21/M02 A2982 RMK A01 T02121017  RH  022%=      5-min Rain = 0
KWOS 192330Z 19008KT 21/M02 A2982 RMK A01 T02051016  RH  023%=      5-min Rain = 0
KWOS 192335Z 19008KT 20/M02 A2982 RMK A01 T02031015  RH  023%=      5-min Rain = 0
KWOS 192340Z 19008KT 20/M02 A2982 RMK A01 T01991015  RH  024%=      5-min Rain = 0
KWOS 192345Z 19008KT 19/M01 A2982 RMK A01 T01921014  RH  025%=      5-min Rain = 0
KWOS 192350Z 19008KT 19/M01 A2982 RMK A01 T01871013  RH  026%=      5-min Rain = 0
KWOS 192355Z 18007KT 19/M01 A2982 RMK A01 T01851012  RH  027%=      5-min Rain = 0
KWOS 200000Z 19007KT 18/M01 A2983 RMK A01 T01801012  RH  027%=      5-min Rain = 0
KWOS 200005Z 19008KT 18/M01 A2983 RMK A01 T01791011  RH  028%=      5-min Rain = 0
KWOS 200010Z 19007KT 18/M01 A2983 RMK A01 T01761010  RH  028%=      5-min Rain = 0
KWOS 200015Z 18007KT 17/M01 A2983 RMK A01 T01741010  RH  029%=      5-min Rain = 0
KWOS 200020Z 18007KT 17/M01 A2983 RMK A01 T01701009  RH  030%=      5-min Rain = 0
KWOS 200025Z 19007KT 17/M01 A2983 RMK A01 T01691008  RH  030%=      5-min Rain = 0
KWOS 200030Z 18007KT 17/M01 A2983 RMK A01 T01651006  RH  031%=      5-min Rain = 0
KWOS 200035Z 18007KT 16/M00 A2983 RMK A01 T01641004  RH  032%=      5-min Rain = 0
KWOS 200040Z 18007KT 17/M01 A2983 RMK A01 T01651005  RH  032%=      5-min Rain = 0
KWOS 200045Z 18007KT 16/M01 A2983 RMK A01 T01631005  RH  032%=      5-min Rain = 0
KWOS 200050Z 18006KT 16/M01 A2982 RMK A01 T01571005  RH  034%=      5-min Rain = 0
KWOS 200055Z 18006KT 15/M00 A2982 RMK A01 T01541004  RH  034%=      5-min Rain = 0
KWOS 200100Z 18006KT 15/M00 A2983 RMK A01 T01511002  RH  035%=      5-min Rain = 0
KWOS 200105Z 18007KT 15/M00 A2983 RMK A01 T01491001  RH  036%=      5-min Rain = 0
KWOS 200110Z 18006KT 15/M00 A2983 RMK A01 T01491001  RH  036%=      5-min Rain = 0
KWOS 200115Z 18006KT 15/M00 A2984 RMK A01 T01481001  RH  036%=      5-min Rain = 0
KWOS 200120Z 18006KT 15/00 A2983 RMK A01 T01460000  RH  037%=      5-min Rain = 0
KWOS 200125Z 18006KT 15/00 A2984 RMK A01 T01450002  RH  038%=      5-min Rain = 0
KWOS 200130Z 17007KT 15/00 A2983 RMK A01 T01450002  RH  038%=      5-min Rain = 0
KWOS 200135Z 18007KT 15/00 A2984 RMK A01 T01450004  RH  038%=      5-min Rain = 0
KWOS 200140Z 18007KT 14/01 A2984 RMK A01 T01440005  RH  039%=      5-min Rain = 0
KWOS 200145Z 18007KT 15/01 A2984 RMK A01 T01450005  RH  039%=      5-min Rain = 0
KWOS 200150Z 19009KT 15/01 A2984 RMK A01 T01460005  RH  039%=      5-min Rain = 0
KWOS 200155Z 19008KT 15/01 A2984 RMK A01 T01470005  RH  039%=      5-min Rain = 0
KWOS 200200Z 18007KT 14/01 A2984 RMK A01 T01440006  RH  039%=      5-min Rain = 0
KWOS 200205Z 18007KT 14/01 A2984 RMK A01 T01410006  RH  040%=      5-min Rain = 0
KWOS 200210Z 18007KT 14/01 A2984 RMK A01 T01380007  RH  041%=      5-min Rain = 0
KWOS 200215Z 18008KT 14/01 A2984 RMK A01 T01400007  RH  041%=      5-min Rain = 0
KWOS 200220Z 18009KT 14/01 A2984 RMK A01 T01400007  RH  041%=      5-min Rain = 0
KWOS 200225Z 18008KT 14/01 A2984 RMK A01 T01420008  RH  040%=      5-min Rain = 0
KWOS 200230Z 18008KT 14/01 A2984 RMK A01 T01420008  RH  041%=      5-min Rain = 0
KWOS 200235Z 18007KT 14/01 A2984 RMK A01 T01410009  RH  041%=      5-min Rain = 0
KWOS 200240Z 18007KT 14/01 A2984 RMK A01 T01400010  RH  042%=      5-min Rain = 0
KWOS 200245Z 18007KT 14/01 A2984 RMK A01 T01390010  RH  042%=      5-min Rain = 0
KWOS 200250Z 18007KT 14/01 A2984 RMK A01 T01380010  RH  042%=      5-min Rain = 0
KWOS 200255Z 18008KT 14/01 A2984 RMK A01 T01360010  RH  043%=      5-min Rain = 0
KWOS 200300Z 18007KT 13/01 A2984 RMK A01 T01340011  RH  044%=      5-min Rain = 0
KWOS 200305Z 17007KT 13/01 A2984 RMK A01 T01330012  RH  044%=      5-min Rain = 0
KWOS 200310Z 18007KT 13/01 A2984 RMK A01 T01310011  RH  044%=      5-min Rain = 0
KWOS 200315Z 18007KT 13/01 A2984 RMK A01 T01280011  RH  046%=      5-min Rain = 0
KWOS 200320Z 17007KT 13/01 A2984 RMK A01 T01250011  RH  046%=      5-min Rain = 0
KWOS 200325Z 18008KT 13/01 A2984 RMK A01 T01250011  RH  046%=      5-min Rain = 0
KWOS 200330Z 18008KT 13/01 A2984 RMK A01 T01260011  RH  046%=      5-min Rain = 0
KWOS 200335Z 18009KT 13/01 A2984 RMK A01 T01260013  RH  047%=      5-min Rain = 0
KWOS 200340Z 18009KT 13/01 A2985 RMK A01 T01270014  RH  047%=      5-min Rain = 0
KWOS 200345Z 19009KT 13/02 A2984 RMK A01 T01270016  RH  047%=      5-min Rain = 0
KWOS 200350Z 19010KT 13/02 A2984 RMK A01 T01290019  RH  048%=      5-min Rain = 0
KWOS 200355Z 19010KT 13/02 A2984 RMK A01 T01330023  RH  048%=      5-min Rain = 0
KWOS 200400Z 18010KT 14/03 A2984 RMK A01 T01350027  RH  049%=      5-min Rain = 0
KWOS 200405Z 18010KT 14/03 A2984 RMK A01 T01350029  RH  049%=      5-min Rain = 0
KWOS 200410Z 18010KT 14/03 A2984 RMK A01 T01350031  RH  050%=      5-min Rain = 0
KWOS 200415Z 19009KT 14/03 A2984 RMK A01 T01350033  RH  051%=      5-min Rain = 0
KWOS 200420Z 18009KT 13/04 A2984 RMK A01 T01330036  RH  053%=      5-min Rain = 0
KWOS 200425Z 19009KT 13/04 A2984 RMK A01 T01320038  RH  054%=      5-min Rain = 0
KWOS 200430Z 19009KT 13/04 A2984 RMK A01 T01320040  RH  055%=      5-min Rain = 0
KWOS 200435Z 20009KT 13/04 A2984 RMK A01 T01330042  RH  055%=      5-min Rain = 0
KWOS 200440Z 20010KT 13/04 A2984 RMK A01 T01340044  RH  056%=      5-min Rain = 0
KWOS 200445Z 19011KT 14/05 A2984 RMK A01 T01350047  RH  056%=      5-min Rain = 0
KWOS 200450Z 19010KT 14/05 A2984 RMK A01 T01380050  RH  057%=      5-min Rain = 0
KWOS 200455Z 19010KT 14/05 A2985 RMK A01 T01380052  RH  057%=      5-min Rain = 0
KWOS 200500Z 19010KT 14/05 A2985 RMK A01 T01390054  RH  058%=      5-min Rain = 0
KWOS 200505Z 19011KT 14/06 A2985 RMK A01 T01400056  RH  058%=      5-min Rain = 0
KWOS 200510Z 19011KT 14/06 A2985 RMK A01 T01420059  RH  059%=      5-min Rain = 0
KWOS 200515Z 19012KT 14/06 A2985 RMK A01 T01440061  RH  059%=      5-min Rain = 0
KWOS 200520Z 19012KT 15/06 A2985 RMK A01 T01450063  RH  059%=      5-min Rain = 0
KWOS 200525Z 19011KT 15/06 A2985 RMK A01 T01450063  RH  059%=      5-min Rain = 0
KWOS 200530Z 19011G16KT 14/06 A2985 RMK A01 T01440064  RH  060%=      5-min Rain = 0
KWOS 200535Z 20011KT 14/06 A2985 RMK A01 T01430064  RH  061%=      5-min Rain = 0
KWOS 200540Z 20011KT 14/06 A2985 RMK A01 T01430064  RH  061%=      5-min Rain = 0
KWOS 200545Z 20011KT 14/07 A2985 RMK A01 T01420065  RH  061%=      5-min Rain = 0
KWOS 200550Z 20011KT 14/07 A2985 RMK A01 T01430066  RH  061%=      5-min Rain = 0
KWOS 200555Z 20011KT 14/07 A2985 RMK A01 T01420066  RH  062%=      5-min Rain = 0

Page generated in 0.0205 seconds.